sensor_id;sensor_type;location;lat;lon;timestamp;pressure;altitude;pressure_sealevel;temperature;humidity
9855;BME280;4966;48.112;9.282;2022-11-04T00:01:08;93837.56;;;9.63;100.00
9855;BME280;4966;48.112;9.282;2022-11-04T00:03:33;93832.41;;;9.58;100.00
9855;BME280;4966;48.112;9.282;2022-11-04T00:06:00;93834.13;;;9.50;100.00
9855;BME280;4966;48.112;9.282;2022-11-04T00:08:26;93839.41;;;9.59;100.00
9855;BME280;4966;48.112;9.282;2022-11-04T00:10:58;93828.81;;;9.38;100.00
9855;BME280;4966;48.112;9.282;2022-11-04T00:13:43;93829.44;;;9.31;100.00
9855;BME280;4966;48.112;9.282;2022-11-04T00:16:09;93828.53;;;9.11;100.00
9855;BME280;4966;48.112;9.282;2022-11-04T00:18:53;93831.63;;;9.42;100.00
9855;BME280;4966;48.112;9.282;2022-11-04T00:21:19;93832.50;;;9.30;100.00
9855;BME280;4966;48.112;9.282;2022-11-04T00:24:14;93837.22;;;9.49;100.00
9855;BME280;4966;48.112;9.282;2022-11-04T00:26:58;93859.88;;;9.41;100.00
9855;BME280;4966;48.112;9.282;2022-11-04T00:29:42;93866.66;;;9.47;100.00
9855;BME280;4966;48.112;9.282;2022-11-04T00:32:08;93871.91;;;9.40;100.00
9855;BME280;4966;48.112;9.282;2022-11-04T00:34:52;93881.78;;;9.32;100.00
9855;BME280;4966;48.112;9.282;2022-11-04T00:37:17;93890.09;;;9.71;100.00
9855;BME280;4966;48.112;9.282;2022-11-04T00:39:42;93899.94;;;9.44;100.00
9855;BME280;4966;48.112;9.282;2022-11-04T00:42:08;93892.91;;;9.43;100.00
9855;BME280;4966;48.112;9.282;2022-11-04T00:44:33;93890.91;;;9.55;100.00
9855;BME280;4966;48.112;9.282;2022-11-04T00:46:59;93883.63;;;9.28;100.00
9855;BME280;4966;48.112;9.282;2022-11-04T00:49:24;93895.00;;;9.49;100.00
9855;BME280;4966;48.112;9.282;2022-11-04T00:51:49;93916.22;;;9.59;100.00
9855;BME280;4966;48.112;9.282;2022-11-04T00:54:15;93914.00;;;9.33;100.00
9855;BME280;4966;48.112;9.282;2022-11-04T00:56:40;93907.09;;;9.52;100.00
9855;BME280;4966;48.112;9.282;2022-11-04T00:59:06;93912.00;;;9.62;100.00
9855;BME280;4966;48.112;9.282;2022-11-04T01:01:31;93908.69;;;9.69;100.00
9855;BME280;4966;48.112;9.282;2022-11-04T01:03:57;93917.19;;;9.51;100.00
9855;BME280;4966;48.112;9.282;2022-11-04T01:06:24;93921.03;;;9.66;100.00
9855;BME280;4966;48.112;9.282;2022-11-04T01:08:59;93910.34;;;9.73;99.89
9855;BME280;4966;48.112;9.282;2022-11-04T01:11:26;93916.47;;;9.54;99.62
9855;BME280;4966;48.112;9.282;2022-11-04T01:13:54;93908.22;;;9.67;99.71
9855;BME280;4966;48.112;9.282;2022-11-04T01:16:20;93918.66;;;9.65;99.99
9855;BME280;4966;48.112;9.282;2022-11-04T01:18:46;93901.75;;;9.71;98.70
9855;BME280;4966;48.112;9.282;2022-11-04T01:21:14;93906.13;;;9.76;99.57
9855;BME280;4966;48.112;9.282;2022-11-04T01:23:41;93906.41;;;9.71;99.24
9855;BME280;4966;48.112;9.282;2022-11-04T01:26:09;93903.50;;;9.64;99.48
9855;BME280;4966;48.112;9.282;2022-11-04T01:28:35;93898.69;;;9.73;99.45
9855;BME280;4966;48.112;9.282;2022-11-04T01:31:12;93891.59;;;9.84;98.15
9855;BME280;4966;48.112;9.282;2022-11-04T01:33:38;93890.19;;;9.58;99.44
9855;BME280;4966;48.112;9.282;2022-11-04T01:36:05;93877.75;;;9.57;99.20
9855;BME280;4966;48.112;9.282;2022-11-04T01:38:31;93870.66;;;9.69;98.96
9855;BME280;4966;48.112;9.282;2022-11-04T01:40:56;93867.53;;;9.51;99.07
9855;BME280;4966;48.112;9.282;2022-11-04T01:43:30;93869.09;;;9.68;98.23
9855;BME280;4966;48.112;9.282;2022-11-04T01:46:07;93867.56;;;9.86;97.38
9855;BME280;4966;48.112;9.282;2022-11-04T01:48:36;93866.50;;;9.91;97.19
9855;BME280;4966;48.112;9.282;2022-11-04T01:51:02;93881.53;;;9.85;97.52
9855;BME280;4966;48.112;9.282;2022-11-04T01:53:38;93876.94;;;9.89;97.33
9855;BME280;4966;48.112;9.282;2022-11-04T01:56:07;93879.97;;;9.68;98.91
9855;BME280;4966;48.112;9.282;2022-11-04T01:58:38;93872.25;;;9.70;98.58
9855;BME280;4966;48.112;9.282;2022-11-04T02:01:05;93884.13;;;9.81;98.30
9855;BME280;4966;48.112;9.282;2022-11-04T02:06:09;93876.28;;;10.11;96.62
9855;BME280;4966;48.112;9.282;2022-11-04T02:08:36;93886.41;;;9.79;98.67
9855;BME280;4966;48.112;9.282;2022-11-04T02:11:02;93883.78;;;9.83;98.90
9855;BME280;4966;48.112;9.282;2022-11-04T02:13:33;93874.53;;;9.52;100.00
9855;BME280;4966;48.112;9.282;2022-11-04T02:18:58;93880.38;;;9.22;100.00
9855;BME280;4966;48.112;9.282;2022-11-04T02:24:36;93864.47;;;9.36;100.00
9855;BME280;4966;48.112;9.282;2022-11-04T02:30:22;93868.75;;;9.53;99.29
9855;BME280;4966;48.112;9.282;2022-11-04T02:38:29;93848.88;;;10.00;96.23
9855;BME280;4966;48.112;9.282;2022-11-04T02:44:05;93839.34;;;9.91;97.00
9855;BME280;4966;48.112;9.282;2022-11-04T02:46:36;93834.81;;;9.79;97.70
9855;BME280;4966;48.112;9.282;2022-11-04T02:49:13;93833.53;;;9.57;98.32
9855;BME280;4966;48.112;9.282;2022-11-04T02:51:50;93835.69;;;9.67;97.35
9855;BME280;4966;48.112;9.282;2022-11-04T02:54:29;93831.34;;;9.47;98.36
9855;BME280;4966;48.112;9.282;2022-11-04T02:56:59;93826.72;;;9.47;97.67
9855;BME280;4966;48.112;9.282;2022-11-04T03:01:51;93835.13;;;9.42;97.96
9855;BME280;4966;48.112;9.282;2022-11-04T03:04:23;93840.91;;;9.25;98.12
9855;BME280;4966;48.112;9.282;2022-11-04T03:06:53;93838.09;;;9.37;98.53
9855;BME280;4966;48.112;9.282;2022-11-04T03:09:21;93851.69;;;9.53;97.53
9855;BME280;4966;48.112;9.282;2022-11-04T03:11:51;93848.41;;;9.15;99.21
9855;BME280;4966;48.112;9.282;2022-11-04T03:14:27;93849.22;;;9.32;98.59
9855;BME280;4966;48.112;9.282;2022-11-04T03:16:58;93844.75;;;9.08;99.34
9855;BME280;4966;48.112;9.282;2022-11-04T03:19:36;93856.38;;;9.08;99.93
9855;BME280;4966;48.112;9.282;2022-11-04T03:22:08;93853.94;;;9.03;100.00
9855;BME280;4966;48.112;9.282;2022-11-04T03:24:34;93853.56;;;9.05;100.00
9855;BME280;4966;48.112;9.282;2022-11-04T03:27:23;93850.59;;;8.94;100.00
9855;BME280;4966;48.112;9.282;2022-11-04T03:30:00;93856.66;;;9.35;98.15
9855;BME280;4966;48.112;9.282;2022-11-04T03:35:13;93860.56;;;9.22;98.69
9855;BME280;4966;48.112;9.282;2022-11-04T03:37:41;93854.97;;;8.99;100.00
9855;BME280;4966;48.112;9.282;2022-11-04T03:40:07;93853.75;;;9.28;98.52
9855;BME280;4966;48.112;9.282;2022-11-04T03:42:41;93849.53;;;9.14;99.30
9855;BME280;4966;48.112;9.282;2022-11-04T03:45:08;93849.38;;;9.23;98.72
9855;BME280;4966;48.112;9.282;2022-11-04T03:47:35;93838.69;;;9.14;98.46
9855;BME280;4966;48.112;9.282;2022-11-04T03:50:19;93831.50;;;9.06;98.87
9855;BME280;4966;48.112;9.282;2022-11-04T03:52:47;93838.63;;;9.11;99.01
9855;BME280;4966;48.112;9.282;2022-11-04T03:55:13;93843.34;;;9.30;97.97
9855;BME280;4966;48.112;9.282;2022-11-04T04:00:19;93858.06;;;9.13;98.95
9855;BME280;4966;48.112;9.282;2022-11-04T04:03:20;93864.19;;;9.10;99.02
9855;BME280;4966;48.112;9.282;2022-11-04T04:05:52;93870.47;;;9.14;98.69
9855;BME280;4966;48.112;9.282;2022-11-04T04:08:38;93883.53;;;8.80;99.33
9855;BME280;4966;48.112;9.282;2022-11-04T04:16:39;93887.91;;;8.57;100.00
9855;BME280;4966;48.112;9.282;2022-11-04T04:19:19;93869.00;;;8.72;100.00
9855;BME280;4966;48.112;9.282;2022-11-04T04:22:11;93861.44;;;8.66;100.00
9855;BME280;4966;48.112;9.282;2022-11-04T04:24:41;93859.50;;;8.66;100.00
9855;BME280;4966;48.112;9.282;2022-11-04T04:27:28;93850.91;;;8.92;98.75
9855;BME280;4966;48.112;9.282;2022-11-04T04:29:57;93840.13;;;8.80;99.54
9855;BME280;4966;48.112;9.282;2022-11-04T04:32:25;93815.91;;;8.87;98.25
9855;BME280;4966;48.112;9.282;2022-11-04T04:34:52;93804.31;;;9.03;97.06
9855;BME280;4966;48.112;9.282;2022-11-04T04:37:42;93794.75;;;8.93;98.12
9855;BME280;4966;48.112;9.282;2022-11-04T04:40:11;93798.00;;;8.99;97.25
9855;BME280;4966;48.112;9.282;2022-11-04T04:42:58;93797.97;;;8.83;98.77
9855;BME280;4966;48.112;9.282;2022-11-04T04:45:48;93816.22;;;8.98;97.66
9855;BME280;4966;48.112;9.282;2022-11-04T04:48:15;93805.31;;;8.82;98.70
9855;BME280;4966;48.112;9.282;2022-11-04T04:50:45;93809.63;;;8.99;96.82
9855;BME280;4966;48.112;9.282;2022-11-04T04:53:12;93816.94;;;8.67;98.66
9855;BME280;4966;48.112;9.282;2022-11-04T04:55:38;93832.97;;;8.88;97.84
9855;BME280;4966;48.112;9.282;2022-11-04T04:58:03;93823.97;;;8.84;97.67
9855;BME280;4966;48.112;9.282;2022-11-04T05:00:29;93840.72;;;8.73;98.73
9855;BME280;4966;48.112;9.282;2022-11-04T05:02:54;93849.91;;;8.69;98.92
9855;BME280;4966;48.112;9.282;2022-11-04T05:05:20;93857.38;;;8.72;98.05
9855;BME280;4966;48.112;9.282;2022-11-04T05:07:46;93873.22;;;8.86;97.17
9855;BME280;4966;48.112;9.282;2022-11-04T05:10:13;93867.28;;;8.40;99.89
9855;BME280;4966;48.112;9.282;2022-11-04T05:12:39;93861.94;;;8.56;98.65
9855;BME280;4966;48.112;9.282;2022-11-04T05:15:23;93854.19;;;8.42;98.89
9855;BME280;4966;48.112;9.282;2022-11-04T05:17:53;93859.38;;;8.47;98.42
9855;BME280;4966;48.112;9.282;2022-11-04T05:20:19;93848.25;;;8.64;97.48
9855;BME280;4966;48.112;9.282;2022-11-04T05:22:44;93850.78;;;8.73;96.29
9855;BME280;4966;48.112;9.282;2022-11-04T05:25:10;93842.63;;;8.57;97.30
9855;BME280;4966;48.112;9.282;2022-11-04T05:27:35;93837.03;;;8.50;97.78
9855;BME280;4966;48.112;9.282;2022-11-04T05:30:00;93837.81;;;8.50;98.00
9855;BME280;4966;48.112;9.282;2022-11-04T05:32:28;93824.84;;;8.31;98.87
9855;BME280;4966;48.112;9.282;2022-11-04T05:34:54;93831.16;;;8.36;98.88
9855;BME280;4966;48.112;9.282;2022-11-04T05:37:19;93831.22;;;8.51;97.38
9855;BME280;4966;48.112;9.282;2022-11-04T05:39:44;93830.13;;;8.52;96.57
9855;BME280;4966;48.112;9.282;2022-11-04T05:42:10;93828.56;;;8.67;95.40
9855;BME280;4966;48.112;9.282;2022-11-04T05:44:35;93825.13;;;8.55;96.43
9855;BME280;4966;48.112;9.282;2022-11-04T05:47:00;93827.28;;;8.49;96.42
9855;BME280;4966;48.112;9.282;2022-11-04T05:49:26;93830.66;;;8.58;95.39
9855;BME280;4966;48.112;9.282;2022-11-04T05:51:51;93842.78;;;8.36;97.48
9855;BME280;4966;48.112;9.282;2022-11-04T05:54:16;93856.84;;;8.14;98.78
9855;BME280;4966;48.112;9.282;2022-11-04T05:56:42;93853.69;;;8.12;99.14
9855;BME280;4966;48.112;9.282;2022-11-04T05:59:07;93851.59;;;8.33;97.04
9855;BME280;4966;48.112;9.282;2022-11-04T06:01:35;93842.47;;;8.25;97.12
9855;BME280;4966;48.112;9.282;2022-11-04T06:04:02;93851.84;;;8.28;97.38
9855;BME280;4966;48.112;9.282;2022-11-04T06:06:32;93849.31;;;8.07;100.00
9855;BME280;4966;48.112;9.282;2022-11-04T06:08:57;93861.84;;;7.87;100.00
9855;BME280;4966;48.112;9.282;2022-11-04T06:11:24;93870.44;;;7.89;100.00
9855;BME280;4966;48.112;9.282;2022-11-04T06:13:50;93867.81;;;8.05;100.00
9855;BME280;4966;48.112;9.282;2022-11-04T06:16:15;93867.03;;;7.92;100.00
9855;BME280;4966;48.112;9.282;2022-11-04T06:18:41;93876.28;;;8.03;100.00
9855;BME280;4966;48.112;9.282;2022-11-04T06:23:41;93885.81;;;8.25;98.91
9855;BME280;4966;48.112;9.282;2022-11-04T06:26:07;93897.59;;;8.17;99.07
9855;BME280;4966;48.112;9.282;2022-11-04T06:28:33;93891.94;;;8.22;98.62
9855;BME280;4966;48.112;9.282;2022-11-04T06:31:00;93896.28;;;8.39;97.93
9855;BME280;4966;48.112;9.282;2022-11-04T06:33:27;93893.28;;;8.41;98.26
9855;BME280;4966;48.112;9.282;2022-11-04T06:35:58;93902.16;;;8.54;97.11
9855;BME280;4966;48.112;9.282;2022-11-04T06:38:24;93890.81;;;8.64;97.35
9855;BME280;4966;48.112;9.282;2022-11-04T06:40:50;93878.28;;;8.59;96.93
9855;BME280;4966;48.112;9.282;2022-11-04T06:43:16;93878.78;;;8.49;97.08
9855;BME280;4966;48.112;9.282;2022-11-04T06:45:41;93867.50;;;8.47;97.89
9855;BME280;4966;48.112;9.282;2022-11-04T06:48:07;93859.75;;;8.61;97.41
9855;BME280;4966;48.112;9.282;2022-11-04T06:50:32;93846.72;;;8.79;96.62
9855;BME280;4966;48.112;9.282;2022-11-04T06:52:58;93840.25;;;8.84;96.20
9855;BME280;4966;48.112;9.282;2022-11-04T06:55:23;93841.81;;;8.85;95.94
9855;BME280;4966;48.112;9.282;2022-11-04T06:57:49;93832.91;;;8.84;95.39
9855;BME280;4966;48.112;9.282;2022-11-04T07:00:14;93838.59;;;8.95;94.84
9855;BME280;4966;48.112;9.282;2022-11-04T07:02:40;93846.78;;;8.83;95.22
9855;BME280;4966;48.112;9.282;2022-11-04T07:05:05;93853.13;;;8.59;95.74
9855;BME280;4966;48.112;9.282;2022-11-04T07:07:31;93841.03;;;8.56;95.39
9855;BME280;4966;48.112;9.282;2022-11-04T07:09:56;93836.97;;;8.78;94.94
9855;BME280;4966;48.112;9.282;2022-11-04T07:12:22;93837.88;;;8.82;94.48
9855;BME280;4966;48.112;9.282;2022-11-04T07:14:49;93843.06;;;8.59;95.20
9855;BME280;4966;48.112;9.282;2022-11-04T07:17:14;93847.09;;;8.65;95.39
9855;BME280;4966;48.112;9.282;2022-11-04T07:19:40;93851.63;;;8.61;95.38
9855;BME280;4966;48.112;9.282;2022-11-04T07:22:05;93847.56;;;8.67;95.08
9855;BME280;4966;48.112;9.282;2022-11-04T07:24:32;93841.03;;;8.84;94.19
9855;BME280;4966;48.112;9.282;2022-11-04T07:26:58;93849.19;;;8.56;95.18
9855;BME280;4966;48.112;9.282;2022-11-04T07:29:23;93840.44;;;8.91;93.85
9855;BME280;4966;48.112;9.282;2022-11-04T07:31:49;93849.69;;;8.90;94.63
9855;BME280;4966;48.112;9.282;2022-11-04T07:34:15;93843.06;;;9.03;93.16
9855;BME280;4966;48.112;9.282;2022-11-04T07:36:40;93843.75;;;9.00;93.94
9855;BME280;4966;48.112;9.282;2022-11-04T07:39:05;93835.78;;;9.07;93.25
9855;BME280;4966;48.112;9.282;2022-11-04T07:41:31;93827.34;;;9.25;92.05
9855;BME280;4966;48.112;9.282;2022-11-04T07:43:56;93821.38;;;9.35;91.72
9855;BME280;4966;48.112;9.282;2022-11-04T07:46:22;93832.59;;;9.18;91.75
9855;BME280;4966;48.112;9.282;2022-11-04T07:48:48;93823.31;;;9.34;90.21
9855;BME280;4966;48.112;9.282;2022-11-04T07:51:17;93832.50;;;9.46;88.71
9855;BME280;4966;48.112;9.282;2022-11-04T07:53:42;93830.66;;;9.34;89.02
9855;BME280;4966;48.112;9.282;2022-11-04T07:56:10;93838.63;;;9.58;88.74
9855;BME280;4966;48.112;9.282;2022-11-04T07:58:36;93849.19;;;9.79;87.92
9855;BME280;4966;48.112;9.282;2022-11-04T08:01:05;93842.06;;;9.91;86.80
9855;BME280;4966;48.112;9.282;2022-11-04T08:03:32;93847.09;;;9.73;86.62
9855;BME280;4966;48.112;9.282;2022-11-04T08:05:59;93846.31;;;9.56;88.06
9855;BME280;4966;48.112;9.282;2022-11-04T08:08:25;93846.72;;;9.74;86.69
9855;BME280;4966;48.112;9.282;2022-11-04T08:10:53;93851.41;;;9.42;88.68
9855;BME280;4966;48.112;9.282;2022-11-04T08:13:18;93851.69;;;9.53;88.32
9855;BME280;4966;48.112;9.282;2022-11-04T08:15:44;93860.00;;;9.60;88.26
9855;BME280;4966;48.112;9.282;2022-11-04T08:18:09;93850.34;;;9.47;86.94
9855;BME280;4966;48.112;9.282;2022-11-04T08:20:34;93849.84;;;9.41;88.39
9855;BME280;4966;48.112;9.282;2022-11-04T08:23:00;93855.97;;;9.22;88.29
9855;BME280;4966;48.112;9.282;2022-11-04T08:25:25;93849.13;;;9.12;89.50
9855;BME280;4966;48.112;9.282;2022-11-04T08:27:51;93851.31;;;9.23;89.31
9855;BME280;4966;48.112;9.282;2022-11-04T08:30:16;93853.22;;;9.38;88.55
9855;BME280;4966;48.112;9.282;2022-11-04T08:32:42;93851.34;;;9.39;88.60
9855;BME280;4966;48.112;9.282;2022-11-04T08:35:08;93853.75;;;9.59;88.71
9855;BME280;4966;48.112;9.282;2022-11-04T08:37:34;93857.78;;;9.66;85.81
9855;BME280;4966;48.112;9.282;2022-11-04T08:39:59;93854.47;;;9.56;86.89
9855;BME280;4966;48.112;9.282;2022-11-04T08:42:24;93856.03;;;9.73;85.90
9855;BME280;4966;48.112;9.282;2022-11-04T08:44:50;93859.91;;;9.56;85.71
9855;BME280;4966;48.112;9.282;2022-11-04T08:47:16;93864.16;;;9.73;85.17
9855;BME280;4966;48.112;9.282;2022-11-04T08:49:42;93866.88;;;9.57;87.00
9855;BME280;4966;48.112;9.282;2022-11-04T08:52:07;93885.47;;;9.55;85.70
9855;BME280;4966;48.112;9.282;2022-11-04T08:54:34;93885.47;;;9.40;87.68
9855;BME280;4966;48.112;9.282;2022-11-04T08:57:00;93889.75;;;9.72;86.61
9855;BME280;4966;48.112;9.282;2022-11-04T08:59:25;93882.56;;;9.80;86.28
9855;BME280;4966;48.112;9.282;2022-11-04T09:01:51;93890.00;;;9.83;86.84
9855;BME280;4966;48.112;9.282;2022-11-04T09:04:16;93882.47;;;9.92;86.52
9855;BME280;4966;48.112;9.282;2022-11-04T09:06:43;93884.69;;;9.87;85.44
9855;BME280;4966;48.112;9.282;2022-11-04T09:09:13;93886.53;;;10.18;85.42
9855;BME280;4966;48.112;9.282;2022-11-04T09:11:41;93887.56;;;9.78;85.07
9855;BME280;4966;48.112;9.282;2022-11-04T09:14:08;93882.75;;;9.87;84.88
9855;BME280;4966;48.112;9.282;2022-11-04T09:16:34;93872.78;;;9.44;86.79
9855;BME280;4966;48.112;9.282;2022-11-04T09:19:01;93874.78;;;9.63;88.44
9855;BME280;4966;48.112;9.282;2022-11-04T09:21:27;93866.16;;;9.92;87.12
9855;BME280;4966;48.112;9.282;2022-11-04T09:23:53;93862.84;;;10.34;84.38
9855;BME280;4966;48.112;9.282;2022-11-04T09:26:19;93853.34;;;10.09;85.84
9855;BME280;4966;48.112;9.282;2022-11-04T09:28:45;93840.97;;;10.47;83.46
9855;BME280;4966;48.112;9.282;2022-11-04T09:31:17;93848.75;;;10.68;82.67
9855;BME280;4966;48.112;9.282;2022-11-04T09:33:43;93850.50;;;10.99;80.14
9855;BME280;4966;48.112;9.282;2022-11-04T09:36:09;93848.03;;;11.33;78.99
9855;BME280;4966;48.112;9.282;2022-11-04T09:38:36;93847.16;;;11.28;77.33
9855;BME280;4966;48.112;9.282;2022-11-04T09:41:18;93849.19;;;11.12;77.92
9855;BME280;4966;48.112;9.282;2022-11-04T09:43:50;93839.88;;;11.13;75.57
9855;BME280;4966;48.112;9.282;2022-11-04T09:46:18;93839.09;;;11.13;75.61
9855;BME280;4966;48.112;9.282;2022-11-04T09:48:50;93832.94;;;11.39;75.95
9855;BME280;4966;48.112;9.282;2022-11-04T09:51:19;93834.69;;;11.04;76.65
9855;BME280;4966;48.112;9.282;2022-11-04T09:53:50;93831.78;;;11.17;77.61
9855;BME280;4966;48.112;9.282;2022-11-04T09:56:21;93834.56;;;11.20;76.90
9855;BME280;4966;48.112;9.282;2022-11-04T09:58:48;93825.84;;;11.34;74.32
9855;BME280;4966;48.112;9.282;2022-11-04T10:06:34;93822.47;;;11.41;73.50
9855;BME280;4966;48.112;9.282;2022-11-04T10:09:24;93820.78;;;11.82;72.13
9855;BME280;4966;48.112;9.282;2022-11-04T10:27:09;93822.97;;;11.96;69.11
9855;BME280;4966;48.112;9.282;2022-11-04T10:29:42;93814.69;;;11.89;69.68
9855;BME280;4966;48.112;9.282;2022-11-04T10:32:18;93802.81;;;12.31;69.08
9855;BME280;4966;48.112;9.282;2022-11-04T10:34:55;93808.41;;;12.11;68.76
9855;BME280;4966;48.112;9.282;2022-11-04T10:37:23;93811.63;;;12.21;67.78
9855;BME280;4966;48.112;9.282;2022-11-04T10:39:52;93808.34;;;12.08;68.90
9855;BME280;4966;48.112;9.282;2022-11-04T10:42:20;93800.28;;;12.49;68.00
9855;BME280;4966;48.112;9.282;2022-11-04T10:44:49;93791.44;;;12.59;66.84
9855;BME280;4966;48.112;9.282;2022-11-04T10:49:58;93798.78;;;12.21;66.99
9855;BME280;4966;48.112;9.282;2022-11-04T10:52:25;93793.59;;;12.43;67.36
9855;BME280;4966;48.112;9.282;2022-11-04T10:54:51;93798.66;;;12.78;65.14
9855;BME280;4966;48.112;9.282;2022-11-04T10:57:20;93792.94;;;12.53;66.57
9855;BME280;4966;48.112;9.282;2022-11-04T10:59:53;93795.09;;;13.08;65.39
9855;BME280;4966;48.112;9.282;2022-11-04T11:02:42;93790.28;;;12.97;64.49
9855;BME280;4966;48.112;9.282;2022-11-04T11:07:47;93787.72;;;12.74;63.72
9855;BME280;4966;48.112;9.282;2022-11-04T11:10:23;93789.34;;;12.79;61.42
9855;BME280;4966;48.112;9.282;2022-11-04T11:12:58;93787.59;;;12.64;62.98
9855;BME280;4966;48.112;9.282;2022-11-04T11:15:34;93786.47;;;12.68;63.41
9855;BME280;4966;48.112;9.282;2022-11-04T11:18:16;93781.03;;;12.34;64.06
9855;BME280;4966;48.112;9.282;2022-11-04T11:20:48;93784.06;;;12.29;62.94
9855;BME280;4966;48.112;9.282;2022-11-04T11:23:39;93784.09;;;12.33;62.16
9855;BME280;4966;48.112;9.282;2022-11-04T11:26:08;93785.09;;;12.18;62.09
9855;BME280;4966;48.112;9.282;2022-11-04T11:28:34;93790.22;;;11.93;63.35
9855;BME280;4966;48.112;9.282;2022-11-04T11:31:06;93788.84;;;12.06;64.81
9855;BME280;4966;48.112;9.282;2022-11-04T11:33:39;93780.94;;;12.27;63.63
9855;BME280;4966;48.112;9.282;2022-11-04T11:36:08;93776.75;;;12.37;63.19
9855;BME280;4966;48.112;9.282;2022-11-04T11:39:00;93783.16;;;12.18;61.88
9855;BME280;4966;48.112;9.282;2022-11-04T11:41:29;93785.59;;;11.97;62.71
9855;BME280;4966;48.112;9.282;2022-11-04T11:46:57;93764.97;;;12.60;61.50
9855;BME280;4966;48.112;9.282;2022-11-04T11:49:28;93775.00;;;12.89;62.53
9855;BME280;4966;48.112;9.282;2022-11-04T11:52:16;93771.31;;;13.08;59.34
9855;BME280;4966;48.112;9.282;2022-11-04T11:54:42;93768.59;;;13.53;59.58
9855;BME280;4966;48.112;9.282;2022-11-04T11:59:55;93758.25;;;13.80;58.80
9855;BME280;4966;48.112;9.282;2022-11-04T12:02:27;93759.75;;;13.26;61.02
9855;BME280;4966;48.112;9.282;2022-11-04T12:04:56;93761.91;;;13.50;59.19
9855;BME280;4966;48.112;9.282;2022-11-04T12:07:37;93757.09;;;13.88;60.04
9855;BME280;4966;48.112;9.282;2022-11-04T12:10:30;93754.69;;;14.53;57.60
9855;BME280;4966;48.112;9.282;2022-11-04T12:13:14;93755.47;;;14.50;55.92
9855;BME280;4966;48.112;9.282;2022-11-04T12:21:22;93760.34;;;15.03;55.16
9855;BME280;4966;48.112;9.282;2022-11-04T12:38:05;93755.97;;;13.93;56.83
9855;BME280;4966;48.112;9.282;2022-11-04T12:43:33;93752.06;;;13.35;57.46
9855;BME280;4966;48.112;9.282;2022-11-04T12:49:12;93763.66;;;13.76;57.73
9855;BME280;4966;48.112;9.282;2022-11-04T12:57:17;93773.38;;;12.81;61.37
9855;BME280;4966;48.112;9.282;2022-11-04T13:00:07;93775.09;;;11.99;62.32
9855;BME280;4966;48.112;9.282;2022-11-04T13:02:39;93776.88;;;12.14;65.21
9855;BME280;4966;48.112;9.282;2022-11-04T13:07:52;93789.72;;;11.60;68.53
9855;BME280;4966;48.112;9.282;2022-11-04T13:10:29;93786.03;;;11.49;68.30
9855;BME280;4966;48.112;9.282;2022-11-04T13:13:00;93787.69;;;11.07;69.59
9855;BME280;4966;48.112;9.282;2022-11-04T13:15:30;93787.00;;;10.91;68.85
9855;BME280;4966;48.112;9.282;2022-11-04T13:18:06;93788.94;;;10.91;67.45
9855;BME280;4966;48.112;9.282;2022-11-04T13:21:12;93779.47;;;10.61;67.54
9855;BME280;4966;48.112;9.282;2022-11-04T13:23:49;93776.63;;;11.20;68.53
9855;BME280;4966;48.112;9.282;2022-11-04T13:26:16;93785.78;;;11.84;65.71
9855;BME280;4966;48.112;9.282;2022-11-04T13:28:44;93777.50;;;12.68;62.61
9855;BME280;4966;48.112;9.282;2022-11-04T13:31:26;93779.97;;;13.17;63.44
9855;BME280;4966;48.112;9.282;2022-11-04T13:34:06;93773.91;;;12.97;64.14
9855;BME280;4966;48.112;9.282;2022-11-04T13:36:43;93775.06;;;13.34;63.87
9855;BME280;4966;48.112;9.282;2022-11-04T13:39:17;93769.63;;;13.37;61.48
9855;BME280;4966;48.112;9.282;2022-11-04T13:44:46;93774.16;;;13.67;61.73
9855;BME280;4966;48.112;9.282;2022-11-04T13:47:19;93779.84;;;13.48;61.45
9855;BME280;4966;48.112;9.282;2022-11-04T13:49:53;93784.44;;;13.85;58.47
9855;BME280;4966;48.112;9.282;2022-11-04T13:52:20;93782.13;;;13.90;57.46
9855;BME280;4966;48.112;9.282;2022-11-04T13:54:51;93778.88;;;13.70;55.44
9855;BME280;4966;48.112;9.282;2022-11-04T13:57:22;93788.25;;;13.76;54.33
9855;BME280;4966;48.112;9.282;2022-11-04T14:02:44;93791.31;;;13.23;57.40
9855;BME280;4966;48.112;9.282;2022-11-04T14:16:03;93789.19;;;12.65;57.59
9855;BME280;4966;48.112;9.282;2022-11-04T14:18:31;93792.88;;;12.83;56.50
9855;BME280;4966;48.112;9.282;2022-11-04T14:21:12;93796.09;;;12.92;57.18
9855;BME280;4966;48.112;9.282;2022-11-04T14:23:39;93790.81;;;13.10;57.31
9855;BME280;4966;48.112;9.282;2022-11-04T14:26:09;93799.25;;;13.32;56.59
9855;BME280;4966;48.112;9.282;2022-11-04T14:28:35;93799.56;;;13.27;56.13
9855;BME280;4966;48.112;9.282;2022-11-04T14:39:06;93815.84;;;11.88;66.16
9855;BME280;4966;48.112;9.282;2022-11-04T14:41:57;93814.69;;;11.66;66.53
9855;BME280;4966;48.112;9.282;2022-11-04T14:44:45;93825.19;;;11.41;70.04
9855;BME280;4966;48.112;9.282;2022-11-04T14:47:28;93824.97;;;11.26;71.32
9855;BME280;4966;48.112;9.282;2022-11-04T14:55:24;93852.31;;;9.97;74.06
9855;BME280;4966;48.112;9.282;2022-11-04T14:57:55;93862.69;;;9.28;76.16
9855;BME280;4966;48.112;9.282;2022-11-04T15:00:49;93859.56;;;9.42;75.70
9855;BME280;4966;48.112;9.282;2022-11-04T15:05:47;93871.44;;;9.06;79.59
9855;BME280;4966;48.112;9.282;2022-11-04T15:08:41;93874.75;;;8.99;77.35
9855;BME280;4966;48.112;9.282;2022-11-04T15:11:22;93872.78;;;8.84;76.94
9855;BME280;4966;48.112;9.282;2022-11-04T15:14:22;93871.00;;;8.76;79.04
9855;BME280;4966;48.112;9.282;2022-11-04T15:16:50;93878.06;;;8.64;80.97
9855;BME280;4966;48.112;9.282;2022-11-04T15:19:27;93881.50;;;8.37;83.20
9855;BME280;4966;48.112;9.282;2022-11-04T15:21:53;93880.63;;;8.73;83.31
9855;BME280;4966;48.112;9.282;2022-11-04T15:24:19;93886.38;;;8.43;85.10
9855;BME280;4966;48.112;9.282;2022-11-04T15:26:49;93880.38;;;8.38;86.22
9855;BME280;4966;48.112;9.282;2022-11-04T15:29:17;93887.19;;;8.31;86.61
9855;BME280;4966;48.112;9.282;2022-11-04T15:31:55;93884.66;;;8.39;87.54
9855;BME280;4966;48.112;9.282;2022-11-04T15:34:22;93893.28;;;8.16;89.68
9855;BME280;4966;48.112;9.282;2022-11-04T15:36:50;93885.94;;;8.29;89.42
9855;BME280;4966;48.112;9.282;2022-11-04T15:39:21;93889.53;;;8.33;90.46
9855;BME280;4966;48.112;9.282;2022-11-04T15:41:49;93891.16;;;8.22;90.50
9855;BME280;4966;48.112;9.282;2022-11-04T15:44:35;93893.09;;;7.97;91.95
9855;BME280;4966;48.112;9.282;2022-11-04T15:49:43;93894.28;;;8.36;91.30
9855;BME280;4966;48.112;9.282;2022-11-04T15:52:15;93891.03;;;8.43;90.72
9855;BME280;4966;48.112;9.282;2022-11-04T15:54:43;93897.53;;;8.54;91.60
9855;BME280;4966;48.112;9.282;2022-11-04T15:57:14;93899.56;;;8.57;91.73
9855;BME280;4966;48.112;9.282;2022-11-04T15:59:45;93906.00;;;8.52;92.77
9855;BME280;4966;48.112;9.282;2022-11-04T16:02:26;93911.56;;;8.44;93.02